createdAt,value
2023-01-26T00:00:22.509Z,11.15
2023-01-26T00:02:50.737Z,14.75
2023-01-26T00:05:18.989Z,10.43
2023-01-26T00:07:47.238Z,18.92
2023-01-26T00:10:16.135Z,11.32
2023-01-26T00:12:44.364Z,16.55
2023-01-26T00:15:13.947Z,16.02
2023-01-26T00:17:42.162Z,12.65
2023-01-26T00:20:12.059Z,11.55
2023-01-26T00:22:40.475Z,15.38
2023-01-26T00:25:11.867Z,12.38
2023-01-26T00:27:40.002Z,9.05
2023-01-26T00:30:10.073Z,12.52
2023-01-26T00:32:39.997Z,13.68
2023-01-26T00:35:08.978Z,10.10
2023-01-26T00:37:37.767Z,14.07
2023-01-26T00:40:06.757Z,13.57
2023-01-26T00:42:34.965Z,12.35
2023-01-26T00:45:06.522Z,12.80
2023-01-26T00:47:34.772Z,15.07
2023-01-26T00:50:04.611Z,13.98
2023-01-26T00:52:32.931Z,12.35
2023-01-26T00:55:01.115Z,19.35
2023-01-26T00:57:29.363Z,12.63
2023-01-26T00:59:58.107Z,12.88
2023-01-26T01:02:26.416Z,17.92
2023-01-26T01:04:54.743Z,12.18
2023-01-26T01:07:24.383Z,12.98
2023-01-26T01:09:52.536Z,14.68
2023-01-26T01:12:20.694Z,13.27
2023-01-26T01:14:49.107Z,9.82
2023-01-26T01:17:17.222Z,11.05
2023-01-26T01:19:47.025Z,14.32
2023-01-26T01:22:15.143Z,12.00
2023-01-26T01:24:44.788Z,10.82
2023-01-26T01:27:12.932Z,12.93
2023-01-26T01:29:41.187Z,15.88
2023-01-26T01:32:09.385Z,14.32
2023-01-26T01:34:37.596Z,12.68
2023-01-26T01:37:06.770Z,17.83
2023-01-26T01:39:34.933Z,15.90
2023-01-26T01:42:04.525Z,12.10
2023-01-26T01:44:32.673Z,18.00
2023-01-26T01:47:03.958Z,13.95
2023-01-26T01:49:35.624Z,17.13
2023-01-26T01:52:10.512Z,12.55
2023-01-26T01:54:42.242Z,17.63
2023-01-26T01:57:27.802Z,15.27
2023-01-26T02:00:01.219Z,16.13
2023-01-26T02:02:31.924Z,13.95
2023-01-26T02:05:05.325Z,19.08
2023-01-26T02:07:34.568Z,15.10
2023-01-26T02:10:22.052Z,13.32
2023-01-26T02:12:56.573Z,12.38
2023-01-26T02:15:25.033Z,11.70
2023-01-26T02:17:55.901Z,11.68
2023-01-26T02:20:30.350Z,13.85
2023-01-26T02:23:04.108Z,17.35
2023-01-26T02:25:42.642Z,11.25
2023-01-26T02:28:12.732Z,11.38
2023-01-26T02:30:41.042Z,11.63
2023-01-26T02:33:09.294Z,19.77
2023-01-26T02:35:37.617Z,17.60
2023-01-26T02:38:05.827Z,14.05
2023-01-26T02:40:44.088Z,14.50
2023-01-26T02:43:17.176Z,19.83
2023-01-26T02:45:45.832Z,14.60
2023-01-26T02:48:14.033Z,17.58
2023-01-26T02:50:43.458Z,13.02
2023-01-26T02:53:16.134Z,14.93
2023-01-26T02:55:43.297Z,16.63
2023-01-26T02:58:11.464Z,12.32
2023-01-26T03:00:42.641Z,20.00
2023-01-26T03:03:16.690Z,17.52
2023-01-26T03:05:47.726Z,16.40
2023-01-26T03:08:15.954Z,17.00
2023-01-26T03:10:47.498Z,18.77
2023-01-26T03:13:16.090Z,13.48
2023-01-26T03:15:52.747Z,17.30
2023-01-26T03:18:41.391Z,14.05
2023-01-26T03:21:31.477Z,13.30
2023-01-26T03:24:17.704Z,14.07
2023-01-26T03:27:15.493Z,16.13
2023-01-26T03:29:47.261Z,13.30
2023-01-26T03:32:16.866Z,15.68
2023-01-26T03:34:45.277Z,13.82
2023-01-26T03:37:15.771Z,14.35
2023-01-26T03:40:08.722Z,18.70
2023-01-26T03:42:57.451Z,14.35
2023-01-26T03:45:43.180Z,11.13
2023-01-26T03:48:31.501Z,11.30
2023-01-26T03:51:18.365Z,16.38
2023-01-26T03:54:04.261Z,16.95
2023-01-26T03:56:33.537Z,15.02
2023-01-26T03:59:10.085Z,12.48
2023-01-26T04:01:42.645Z,11.02
2023-01-26T04:04:36.126Z,14.40
2023-01-26T04:07:21.789Z,9.95
2023-01-26T04:09:52.168Z,14.65
2023-01-26T04:12:26.122Z,15.45
2023-01-26T04:15:36.350Z,12.85
2023-01-26T04:18:25.523Z,15.00
2023-01-26T04:21:15.875Z,9.25
2023-01-26T04:23:45.734Z,15.52
2023-01-26T04:26:14.033Z,16.55
2023-01-26T04:28:42.340Z,13.10
2023-01-26T04:31:10.699Z,13.57
2023-01-26T04:33:39.638Z,11.18
2023-01-26T04:36:11.148Z,13.77
2023-01-26T04:38:43.278Z,9.82
2023-01-26T04:41:11.853Z,11.88
2023-01-26T04:43:47.772Z,15.32
2023-01-26T04:46:16.819Z,12.75
2023-01-26T04:48:45.300Z,16.15
2023-01-26T04:51:16.860Z,13.45
2023-01-26T04:53:45.283Z,17.70
2023-01-26T04:56:21.648Z,16.58
2023-01-26T04:58:49.920Z,14.00
2023-01-26T05:01:18.566Z,15.93
2023-01-26T05:03:47.340Z,18.08
2023-01-26T05:06:16.925Z,18.27
2023-01-26T05:08:47.234Z,14.18
2023-01-26T05:11:15.621Z,20.90
2023-01-26T05:14:06.313Z,16.63
2023-01-26T05:16:57.280Z,14.98
2023-01-26T05:19:48.388Z,15.38
2023-01-26T05:22:38.260Z,23.00
2023-01-26T05:25:29.293Z,13.15
2023-01-26T05:28:05.388Z,20.45
2023-01-26T05:30:33.670Z,13.70
2023-01-26T05:33:04.920Z,12.23
2023-01-26T05:35:33.731Z,17.05
2023-01-26T05:38:03.359Z,13.70
2023-01-26T05:40:33.943Z,21.60
2023-01-26T05:43:05.388Z,16.25
2023-01-26T05:46:08.787Z,11.60
2023-01-26T05:48:41.657Z,16.23
2023-01-26T05:51:12.595Z,11.35
2023-01-26T05:53:42.295Z,17.95
2023-01-26T05:56:10.453Z,13.38
2023-01-26T05:58:44.176Z,17.48
2023-01-26T06:01:12.381Z,15.40
2023-01-26T06:03:49.149Z,13.60
2023-01-26T06:06:17.424Z,11.48
2023-01-26T06:08:52.542Z,10.75
2023-01-26T06:11:33.403Z,11.30
2023-01-26T06:14:12.052Z,8.77
2023-01-26T06:16:40.794Z,11.43
2023-01-26T06:19:11.731Z,10.48
2023-01-26T06:21:41.022Z,9.73
2023-01-26T06:24:15.071Z,9.05
2023-01-26T06:26:43.362Z,14.32
2023-01-26T06:29:12.575Z,12.75
2023-01-26T06:31:42.109Z,11.88
2023-01-26T06:34:15.990Z,11.73
2023-01-26T06:36:44.847Z,11.60
2023-01-26T06:39:21.572Z,15.15
2023-01-26T06:41:49.792Z,17.52
2023-01-26T06:44:18.631Z,18.58
2023-01-26T06:46:46.902Z,15.45
2023-01-26T06:49:16.742Z,24.67
2023-01-26T06:51:58.289Z,18.42
2023-01-26T06:54:40.876Z,22.35
2023-01-26T06:57:09.997Z,19.27
2023-01-26T06:59:46.501Z,19.38
2023-01-26T07:02:25.322Z,20.48
2023-01-26T07:04:54.294Z,21.75
2023-01-26T07:07:22.450Z,18.75
2023-01-26T07:09:51.997Z,18.50
2023-01-26T07:12:20.167Z,16.48
2023-01-26T07:14:48.423Z,17.45
2023-01-26T07:17:16.572Z,21.00
2023-01-26T07:19:45.320Z,15.50
2023-01-26T07:22:15.527Z,12.13
2023-01-26T07:24:43.741Z,19.02
2023-01-26T07:27:13.255Z,14.35
2023-01-26T07:29:43.697Z,15.57
2023-01-26T07:32:11.933Z,16.38
2023-01-26T07:34:43.188Z,18.02
2023-01-26T07:37:11.361Z,18.33
2023-01-26T07:39:39.518Z,19.30
2023-01-26T07:42:07.886Z,16.13
2023-01-26T07:45:00.754Z,16.77
2023-01-26T07:47:31.982Z,17.50
2023-01-26T07:50:00.150Z,17.80
2023-01-26T07:52:28.383Z,14.30
2023-01-26T07:54:56.568Z,15.35
2023-01-26T07:57:24.973Z,15.68
2023-01-26T07:59:53.751Z,13.85
2023-01-26T08:02:23.371Z,17.35
2023-01-26T08:04:51.554Z,10.70
2023-01-26T08:07:19.708Z,14.02
2023-01-26T08:09:47.871Z,12.27
2023-01-26T08:12:16.022Z,15.02
2023-01-26T08:14:47.075Z,13.55
2023-01-26T08:17:17.451Z,12.52
2023-01-26T08:19:49.623Z,15.93
2023-01-26T08:22:17.775Z,10.15
2023-01-26T08:24:46.031Z,13.10
2023-01-26T08:27:14.775Z,9.98
2023-01-26T08:29:43.000Z,12.85
2023-01-26T08:32:11.218Z,12.95
2023-01-26T08:34:39.672Z,12.98
2023-01-26T08:37:09.176Z,11.85
2023-01-26T08:39:37.433Z,9.70
2023-01-26T08:42:05.668Z,14.32
2023-01-26T08:44:33.816Z,12.07
2023-01-26T08:47:02.002Z,8.57
2023-01-26T08:49:32.648Z,13.20
2023-01-26T08:52:00.874Z,10.93
2023-01-26T08:54:30.738Z,13.55
2023-01-26T08:57:04.960Z,11.52
2023-01-26T08:59:33.117Z,10.48
2023-01-26T09:02:01.351Z,8.10
2023-01-26T09:04:29.879Z,11.52
2023-01-26T09:06:58.018Z,9.70
2023-01-26T09:09:26.412Z,9.55
2023-01-26T09:12:04.796Z,10.35
2023-01-26T09:14:32.944Z,6.75
2023-01-26T09:17:01.153Z,7.95
2023-01-26T09:19:31.131Z,10.57
2023-01-26T09:21:59.473Z,13.48
2023-01-26T09:24:27.852Z,9.45
2023-01-26T09:26:57.432Z,11.70
2023-01-26T09:29:29.269Z,10.18
2023-01-26T09:31:57.586Z,8.52
2023-01-26T09:34:26.074Z,7.82
2023-01-26T09:36:54.223Z,7.85
2023-01-26T09:39:22.528Z,6.10
2023-01-26T09:42:19.144Z,10.98
2023-01-26T09:45:01.679Z,7.65
2023-01-26T09:47:39.743Z,8.10
2023-01-26T09:50:15.433Z,10.45
2023-01-26T09:52:53.597Z,9.18
2023-01-26T09:55:24.820Z,9.88
2023-01-26T09:57:58.014Z,9.63
2023-01-26T10:00:29.509Z,8.15
2023-01-26T10:03:10.037Z,7.07
2023-01-26T10:05:43.196Z,11.05
2023-01-26T10:08:14.311Z,9.02
2023-01-26T10:10:46.211Z,9.35
2023-01-26T10:13:17.903Z,11.43
2023-01-26T10:15:49.648Z,8.40
2023-01-26T10:18:22.406Z,5.75
2023-01-26T10:20:54.234Z,8.43
2023-01-26T10:23:25.724Z,9.82
2023-01-26T10:25:57.468Z,9.70
2023-01-26T10:28:30.215Z,10.55
2023-01-26T10:30:59.069Z,7.97
2023-01-26T10:33:34.494Z,12.13
2023-01-26T10:36:07.174Z,11.15
2023-01-26T10:38:43.669Z,7.63
2023-01-26T10:41:29.349Z,6.47
2023-01-26T10:44:00.536Z,9.00
2023-01-26T10:46:34.650Z,11.38
2023-01-26T10:49:04.905Z,11.27
2023-01-26T10:51:35.037Z,8.55
2023-01-26T10:54:24.735Z,9.48
2023-01-26T10:56:56.658Z,8.70
2023-01-26T10:59:32.055Z,9.43
2023-01-26T11:02:02.946Z,8.02
2023-01-26T11:04:31.449Z,9.60
2023-01-26T11:07:26.517Z,10.38
2023-01-26T11:09:54.856Z,6.32
2023-01-26T11:12:26.497Z,7.70
2023-01-26T11:15:04.145Z,7.95
2023-01-26T11:17:37.180Z,8.95
2023-01-26T11:20:23.398Z,9.45
2023-01-26T11:22:59.908Z,8.70
2023-01-26T11:25:35.796Z,8.00
2023-01-26T11:28:22.275Z,7.28
2023-01-26T11:31:03.668Z,8.48
2023-01-26T11:33:39.670Z,10.23
2023-01-26T11:36:16.992Z,8.90
2023-01-26T11:38:53.596Z,6.28
2023-01-26T11:41:39.393Z,8.10
2023-01-26T11:44:39.595Z,7.38
2023-01-26T11:47:30.168Z,6.60
2023-01-26T11:50:18.937Z,6.88
2023-01-26T11:53:00.101Z,6.32
2023-01-26T11:55:39.112Z,5.10
2023-01-26T11:58:24.418Z,9.25
2023-01-26T12:00:56.104Z,6.95
2023-01-26T12:03:31.708Z,9.93
2023-01-26T12:06:06.674Z,8.20
2023-01-26T12:08:41.005Z,7.47
2023-01-26T12:11:26.428Z,8.40
2023-01-26T12:14:02.371Z,8.90
2023-01-26T12:16:39.542Z,7.68
2023-01-26T12:19:16.731Z,5.70
2023-01-26T12:21:46.585Z,11.32
2023-01-26T12:24:48.453Z,7.20
2023-01-26T12:27:17.760Z,6.10
2023-01-26T12:29:53.453Z,10.13
2023-01-26T12:32:22.751Z,8.57
2023-01-26T12:34:52.481Z,6.65
2023-01-26T12:37:42.408Z,7.18
2023-01-26T12:40:23.307Z,5.28
2023-01-26T12:43:01.984Z,10.27
2023-01-26T12:45:33.753Z,9.55
2023-01-26T12:48:09.613Z,8.57
2023-01-26T12:50:42.661Z,4.80
2023-01-26T12:53:15.755Z,10.40
2023-01-26T12:55:48.348Z,8.23
2023-01-26T12:58:22.444Z,8.10
2023-01-26T13:00:58.441Z,9.45
2023-01-26T13:03:32.140Z,7.38
2023-01-26T13:06:03.332Z,7.07
2023-01-26T13:08:51.575Z,8.63
2023-01-26T13:11:48.370Z,8.38
2023-01-26T13:14:34.753Z,7.50
2023-01-26T13:17:36.450Z,12.02
2023-01-26T13:20:23.869Z,8.77
2023-01-26T13:22:53.771Z,6.38
2023-01-26T13:25:31.331Z,9.25
2023-01-26T13:28:01.553Z,7.10
2023-01-26T13:30:44.368Z,6.78
2023-01-26T13:33:16.745Z,12.38
2023-01-26T13:35:46.809Z,8.10
2023-01-26T13:38:22.034Z,8.40
2023-01-26T13:40:51.433Z,7.60
2023-01-26T13:43:28.975Z,5.68
2023-01-26T13:46:04.433Z,10.60
2023-01-26T13:48:48.431Z,9.40
2023-01-26T13:51:40.465Z,10.50
2023-01-26T13:54:24.967Z,8.30
2023-01-26T13:57:04.797Z,10.32
2023-01-26T13:59:34.192Z,8.32
2023-01-26T14:02:02.694Z,7.68
2023-01-26T14:04:33.993Z,7.63
2023-01-26T14:07:06.178Z,9.52
2023-01-26T14:09:46.232Z,10.52
2023-01-26T14:12:22.873Z,12.02
2023-01-26T14:14:53.267Z,9.77
2023-01-26T14:17:30.371Z,11.50
2023-01-26T14:20:00.073Z,12.65
2023-01-26T14:22:28.736Z,11.98
2023-01-26T14:24:58.292Z,11.30
2023-01-26T14:27:35.112Z,9.15
2023-01-26T14:30:09.170Z,8.10
2023-01-26T14:32:37.667Z,9.35
2023-01-26T14:35:23.205Z,8.65
2023-01-26T14:37:51.787Z,11.73
2023-01-26T14:40:25.332Z,11.30
2023-01-26T14:42:55.431Z,10.93
2023-01-26T14:45:30.900Z,10.25
2023-01-26T14:48:02.948Z,9.15
2023-01-26T14:50:32.418Z,10.55
2023-01-26T14:53:04.130Z,11.73
2023-01-26T14:55:37.333Z,8.80
2023-01-26T14:58:15.771Z,10.82
2023-01-26T15:00:49.554Z,14.75
2023-01-26T15:03:25.852Z,14.60
2023-01-26T15:06:20.437Z,11.13
2023-01-26T15:09:04.297Z,8.98
2023-01-26T15:11:56.724Z,10.55
2023-01-26T15:14:50.327Z,10.68
2023-01-26T15:17:30.058Z,7.78
2023-01-26T15:20:00.642Z,6.93
2023-01-26T15:22:28.888Z,8.95
2023-01-26T15:25:06.911Z,10.52
2023-01-26T15:27:37.951Z,9.75
2023-01-26T15:30:08.171Z,7.43
2023-01-26T15:35:59.031Z,10.50
2023-01-26T15:38:27.197Z,12.18
2023-01-26T15:40:56.260Z,10.93
2023-01-26T15:43:26.668Z,8.95
2023-01-26T15:45:57.166Z,6.97
2023-01-26T15:48:26.937Z,9.50
2023-01-26T15:50:55.086Z,9.38
2023-01-26T15:53:25.816Z,8.40
2023-01-26T15:55:56.033Z,7.93
2023-01-26T15:58:26.325Z,7.15
2023-01-26T16:00:54.554Z,11.27
2023-01-26T16:03:25.212Z,8.95
2023-01-26T16:05:55.643Z,9.85
2023-01-26T16:08:23.848Z,8.50
2023-01-26T16:10:52.381Z,10.95
2023-01-26T16:13:20.790Z,11.98
2023-01-26T16:15:51.983Z,10.15
2023-01-26T16:18:20.673Z,11.02
2023-01-26T16:20:50.556Z,9.60
2023-01-26T16:23:21.250Z,10.35
2023-01-26T16:25:50.082Z,10.77
2023-01-26T16:28:18.649Z,10.60
2023-01-26T16:30:48.355Z,10.68
2023-01-26T16:33:21.006Z,10.80
2023-01-26T16:35:49.210Z,11.38
2023-01-26T16:38:20.392Z,9.23
2023-01-26T16:40:49.794Z,9.52
2023-01-26T16:43:24.023Z,11.40
2023-01-26T16:45:52.598Z,11.32
2023-01-26T16:48:22.822Z,10.77
2023-01-26T16:50:53.765Z,9.15
2023-01-26T16:53:25.873Z,11.68
2023-01-26T16:55:54.352Z,8.90
2023-01-26T16:58:22.987Z,11.70
2023-01-26T17:00:51.268Z,6.50
2023-01-26T17:03:21.194Z,8.13
2023-01-26T17:05:50.556Z,8.10
2023-01-26T17:08:18.922Z,9.45
2023-01-26T17:11:01.031Z,8.02
2023-01-26T17:13:31.371Z,7.10
2023-01-26T17:16:00.365Z,9.93
2023-01-26T17:18:33.397Z,11.85
2023-01-26T17:21:03.892Z,13.57
2023-01-26T17:23:32.458Z,11.02
2023-01-26T17:26:01.281Z,8.32
2023-01-26T17:28:29.517Z,11.63
2023-01-26T17:31:00.815Z,9.52
2023-01-26T17:33:31.252Z,10.93
2023-01-26T17:36:02.790Z,9.88
2023-01-26T17:38:31.255Z,10.07
2023-01-26T17:41:00.354Z,9.00
2023-01-26T17:43:28.955Z,7.15
2023-01-26T17:46:07.497Z,9.60
2023-01-26T17:48:38.554Z,11.57
2023-01-26T17:51:07.872Z,12.90
2023-01-26T17:53:39.217Z,8.10
2023-01-26T17:56:09.940Z,9.48
2023-01-26T17:58:38.530Z,9.05
2023-01-26T18:01:08.149Z,8.80
2023-01-26T18:03:41.722Z,12.57
2023-01-26T18:06:10.451Z,8.80
2023-01-26T18:08:39.501Z,8.25
2023-01-26T18:11:09.627Z,8.57
2023-01-26T18:13:38.210Z,10.00
2023-01-26T18:16:08.200Z,8.55
2023-01-26T18:18:38.558Z,7.63
2023-01-26T18:21:15.037Z,10.38
2023-01-26T18:23:45.836Z,7.05
2023-01-26T18:26:18.128Z,8.52
2023-01-26T18:28:48.994Z,6.95
2023-01-26T18:31:22.007Z,8.07
2023-01-26T18:33:51.883Z,8.52
2023-01-26T18:36:21.605Z,7.35
2023-01-26T18:38:51.771Z,9.48
2023-01-26T18:41:20.985Z,8.25
2023-01-26T18:43:52.188Z,7.97
2023-01-26T18:46:20.770Z,7.82
2023-01-26T18:48:49.070Z,9.00
2023-01-26T18:51:19.252Z,8.50
2023-01-26T18:53:47.441Z,5.97
2023-01-26T18:56:18.549Z,7.20
2023-01-26T18:58:46.848Z,6.80
2023-01-26T19:01:18.844Z,6.82
2023-01-26T19:03:47.801Z,7.55
2023-01-26T19:06:19.913Z,7.35
2023-01-26T19:08:49.092Z,7.07
2023-01-26T19:11:17.319Z,9.23
2023-01-26T19:13:48.890Z,6.68
2023-01-26T19:16:17.368Z,6.93
2023-01-26T19:18:47.941Z,10.43
2023-01-26T19:21:17.163Z,8.48
2023-01-26T19:23:46.690Z,6.55
2023-01-26T19:26:17.575Z,6.57
2023-01-26T19:28:46.705Z,11.25
2023-01-26T19:31:18.981Z,7.40
2023-01-26T19:33:51.846Z,8.85
2023-01-26T19:36:23.546Z,7.57
2023-01-26T19:38:53.250Z,8.00
2023-01-26T19:41:24.319Z,8.95
2023-01-26T19:43:52.924Z,9.27
2023-01-26T19:46:21.883Z,8.63
2023-01-26T19:48:50.380Z,8.98
2023-01-26T19:51:20.155Z,4.30
2023-01-26T19:53:50.580Z,11.60
2023-01-26T19:56:22.671Z,7.40
2023-01-26T19:58:52.268Z,9.18
2023-01-26T20:01:21.257Z,6.13
2023-01-26T20:03:51.726Z,7.75
2023-01-26T20:06:22.072Z,6.20
2023-01-26T20:08:51.156Z,5.40
2023-01-26T20:11:24.915Z,7.18
2023-01-26T20:13:56.584Z,8.52
2023-01-26T20:16:28.004Z,9.68
2023-01-26T20:18:57.041Z,7.85
2023-01-26T20:21:25.330Z,9.10
2023-01-26T20:23:55.686Z,6.22
2023-01-26T20:26:27.424Z,7.03
2023-01-26T20:28:58.287Z,6.82
2023-01-26T20:31:27.765Z,9.25
2023-01-26T20:33:58.294Z,10.02
2023-01-26T20:36:29.333Z,6.95
2023-01-26T20:38:58.313Z,6.18
2023-01-26T20:41:32.084Z,11.27
2023-01-26T20:44:02.869Z,7.80
2023-01-26T20:46:33.079Z,8.00
2023-01-26T20:49:04.701Z,6.13
2023-01-26T20:51:35.904Z,7.78
2023-01-26T20:54:06.504Z,11.25
2023-01-26T20:56:36.580Z,6.68
2023-01-26T20:59:05.435Z,6.75
2023-01-26T21:01:34.957Z,10.77
2023-01-26T21:04:03.801Z,6.70
2023-01-26T21:06:32.546Z,6.80
2023-01-26T21:09:01.807Z,5.72
2023-01-26T21:11:32.865Z,8.18
2023-01-26T21:14:02.757Z,10.27
2023-01-26T21:16:32.204Z,6.20
2023-01-26T21:19:00.415Z,5.90
2023-01-26T21:21:28.947Z,6.40
2023-01-26T21:23:57.211Z,5.88
2023-01-26T21:26:27.823Z,6.43
2023-01-26T21:28:58.406Z,6.88
2023-01-26T21:31:29.448Z,10.32
2023-01-26T21:33:58.156Z,9.90
2023-01-26T21:36:28.360Z,6.82
2023-01-26T21:38:58.108Z,8.80
2023-01-26T21:41:45.635Z,6.75
2023-01-26T21:44:16.558Z,5.50
2023-01-26T21:46:48.673Z,7.32
2023-01-26T21:49:17.403Z,5.18
2023-01-26T21:52:03.380Z,5.78
2023-01-26T21:54:31.869Z,5.43
2023-01-26T21:57:03.816Z,8.40
2023-01-26T21:59:31.343Z,6.45
2023-01-26T22:02:00.865Z,6.57
2023-01-26T22:04:31.139Z,8.02
2023-01-26T22:07:00.109Z,6.15
2023-01-26T22:09:29.997Z,6.43
2023-01-26T22:11:58.139Z,7.90
2023-01-26T22:14:26.925Z,6.88
2023-01-26T22:16:55.840Z,6.25
2023-01-26T22:19:28.666Z,7.13
2023-01-26T22:21:56.892Z,5.95
2023-01-26T22:24:25.528Z,5.82
2023-01-26T22:26:54.104Z,6.15
2023-01-26T22:29:22.617Z,8.60
2023-01-26T22:31:54.520Z,8.25
2023-01-26T22:34:23.153Z,9.25
2023-01-26T22:36:55.704Z,7.03
2023-01-26T22:39:23.893Z,6.25
2023-01-26T22:41:54.791Z,8.60
2023-01-26T22:44:23.360Z,7.65
2023-01-26T22:46:54.262Z,7.18
2023-01-26T22:49:22.446Z,7.63
2023-01-26T22:51:53.671Z,6.90
2023-01-26T22:54:22.129Z,9.85
2023-01-26T22:56:50.640Z,8.77
2023-01-26T22:59:19.070Z,9.18
2023-01-26T23:01:47.274Z,7.40
2023-01-26T23:04:15.511Z,7.20
2023-01-26T23:06:43.829Z,6.70
2023-01-26T23:09:13.420Z,7.75
2023-01-26T23:11:44.636Z,9.18
2023-01-26T23:14:12.977Z,6.63
2023-01-26T23:16:42.933Z,6.50
2023-01-26T23:19:11.240Z,8.90
2023-01-26T23:21:39.619Z,7.88
2023-01-26T23:24:08.820Z,9.32
2023-01-26T23:26:42.927Z,6.70
2023-01-26T23:29:11.266Z,6.00
2023-01-26T23:31:40.191Z,6.35
2023-01-26T23:34:10.565Z,9.65
2023-01-26T23:36:38.774Z,8.85
2023-01-26T23:39:14.206Z,10.30
2023-01-26T23:41:55.541Z,9.20
2023-01-26T23:44:24.102Z,8.82
2023-01-26T23:46:52.252Z,7.75
2023-01-26T23:49:20.506Z,7.25
2023-01-26T23:51:49.032Z,13.27
2023-01-26T23:54:19.814Z,7.65
2023-01-26T23:56:50.403Z,8.18
2023-01-26T23:59:19.997Z,6.93
